createdAt,value
2023-12-04T00:01:53.570Z,4.63
2023-12-04T00:04:21.498Z,5.05
2023-12-04T00:06:50.638Z,4.90
2023-12-04T00:09:18.447Z,4.70
2023-12-04T00:11:46.284Z,5.55
2023-12-04T00:14:14.028Z,5.03
2023-12-04T00:16:41.788Z,5.10
2023-12-04T00:19:09.748Z,4.80
2023-12-04T00:21:37.797Z,5.43
2023-12-04T00:24:07.247Z,5.32
2023-12-04T00:26:34.996Z,5.25
2023-12-04T00:29:03.084Z,5.50
2023-12-04T00:31:32.364Z,5.15
2023-12-04T00:34:00.259Z,5.20
2023-12-04T00:36:28.573Z,5.57
2023-12-04T00:38:56.490Z,5.72
2023-12-04T00:41:25.570Z,5.50
2023-12-04T00:43:53.355Z,5.78
2023-12-04T00:46:21.089Z,5.72
2023-12-04T00:48:48.989Z,6.22
2023-12-04T00:51:16.842Z,6.15
2023-12-04T00:53:44.886Z,6.07
2023-12-04T00:56:12.964Z,6.30
2023-12-04T00:58:42.102Z,6.40
2023-12-04T01:01:11.078Z,6.88
2023-12-04T01:03:39.894Z,6.95
2023-12-04T01:06:08.278Z,7.18
2023-12-04T01:08:36.084Z,7.40
2023-12-04T01:11:03.789Z,7.97
2023-12-04T01:13:31.521Z,8.05
2023-12-04T01:16:00.629Z,8.00
2023-12-04T01:18:28.480Z,8.70
2023-12-04T01:20:56.553Z,8.52
2023-12-04T01:23:24.340Z,8.63
2023-12-04T01:25:52.150Z,9.18
2023-12-04T01:28:19.925Z,9.82
2023-12-04T01:30:47.737Z,10.32
2023-12-04T01:33:17.154Z,10.52
2023-12-04T01:35:44.947Z,10.88
2023-12-04T01:38:12.770Z,11.38
2023-12-04T01:40:40.536Z,11.40
2023-12-04T01:43:08.296Z,11.93
2023-12-04T01:45:35.114Z,11.85
2023-12-04T01:48:02.959Z,12.43
2023-12-04T01:50:32.168Z,13.95
2023-12-04T01:52:59.878Z,14.13
2023-12-04T01:55:27.580Z,15.07
2023-12-04T01:57:56.953Z,15.32
2023-12-04T02:00:24.798Z,16.65
2023-12-04T02:02:53.266Z,16.88
2023-12-04T02:05:21.224Z,17.13
2023-12-04T02:07:50.310Z,18.02
2023-12-04T02:10:18.199Z,19.05
2023-12-04T02:12:45.958Z,19.40
2023-12-04T02:15:14.279Z,20.35
2023-12-04T02:17:42.106Z,20.13
2023-12-04T02:20:10.922Z,22.65
2023-12-04T02:22:39.781Z,22.45
2023-12-04T02:25:14.432Z,22.00
2023-12-04T02:27:49.071Z,23.55
2023-12-04T02:30:16.838Z,25.02
2023-12-04T02:32:46.447Z,26.35
2023-12-04T02:35:14.587Z,26.52
2023-12-04T02:37:42.814Z,28.05
2023-12-04T02:40:13.250Z,28.27
2023-12-04T02:42:41.098Z,30.30
2023-12-04T02:45:09.773Z,30.20
2023-12-04T02:47:37.665Z,31.00
2023-12-04T02:50:06.367Z,31.23
2023-12-04T02:52:34.126Z,32.80
2023-12-04T02:55:01.954Z,33.95
2023-12-04T02:57:31.098Z,35.30
2023-12-04T02:59:58.858Z,34.35
2023-12-04T03:02:26.626Z,35.17
2023-12-04T03:04:54.369Z,37.10
2023-12-04T03:07:22.558Z,37.05
2023-12-04T03:09:50.345Z,37.30
2023-12-04T03:12:18.305Z,38.00
2023-12-04T03:14:47.429Z,38.40
2023-12-04T03:17:15.192Z,38.83
2023-12-04T03:19:43.047Z,38.75
2023-12-04T03:22:10.871Z,40.67
2023-12-04T03:24:38.722Z,38.15
2023-12-04T03:27:06.641Z,39.45
2023-12-04T03:29:34.394Z,40.25
2023-12-04T03:32:03.520Z,39.72
2023-12-04T03:34:31.304Z,40.03
2023-12-04T03:36:59.084Z,40.55
2023-12-04T03:39:26.870Z,42.13
2023-12-04T03:41:54.660Z,41.10
2023-12-04T03:44:22.475Z,41.42
2023-12-04T03:46:50.259Z,42.28
2023-12-04T03:49:19.406Z,40.45
2023-12-04T03:51:47.187Z,41.63
2023-12-04T03:54:14.989Z,41.03
2023-12-04T03:56:42.851Z,41.38
2023-12-04T03:59:11.084Z,41.08
2023-12-04T04:01:38.891Z,42.70
2023-12-04T04:04:06.699Z,41.35
2023-12-04T04:06:36.006Z,40.25
2023-12-04T04:09:03.882Z,41.67
2023-12-04T04:11:31.651Z,39.17
2023-12-04T04:13:59.426Z,39.97
2023-12-04T04:16:27.186Z,39.75
2023-12-04T04:18:55.632Z,39.05
2023-12-04T04:21:23.459Z,39.33
2023-12-04T04:23:54.481Z,40.17
2023-12-04T04:26:22.240Z,39.72
2023-12-04T04:28:49.994Z,38.30
2023-12-04T04:31:17.816Z,37.17
2023-12-04T04:33:45.657Z,38.15
2023-12-04T04:36:13.820Z,36.42
2023-12-04T04:38:41.951Z,37.17
2023-12-04T04:41:15.380Z,36.58
2023-12-04T04:43:43.245Z,36.85
2023-12-04T04:46:11.170Z,36.65
2023-12-04T04:48:39.086Z,35.53
2023-12-04T04:51:07.192Z,36.15
2023-12-04T04:53:34.939Z,35.47
2023-12-04T04:56:02.678Z,34.50
2023-12-04T04:58:31.759Z,35.70
2023-12-04T05:00:59.543Z,32.88
2023-12-04T05:03:27.594Z,33.40
2023-12-04T05:05:55.376Z,32.03
2023-12-04T05:08:23.172Z,32.33
2023-12-04T05:10:50.881Z,31.35
2023-12-04T05:13:18.648Z,32.17
2023-12-04T05:15:47.728Z,30.85
2023-12-04T05:18:15.489Z,31.80
2023-12-04T05:20:43.220Z,29.63
2023-12-04T05:23:10.947Z,31.40
2023-12-04T05:25:44.916Z,29.55
2023-12-04T05:28:16.140Z,29.08
2023-12-04T05:30:43.993Z,30.23
2023-12-04T05:33:13.250Z,27.83
2023-12-04T05:35:41.298Z,27.50
2023-12-04T05:38:09.599Z,28.45
2023-12-04T05:40:37.446Z,28.52
2023-12-04T05:43:05.255Z,27.77
2023-12-04T05:45:33.178Z,26.33
2023-12-04T05:48:01.064Z,25.58
2023-12-04T05:50:30.141Z,25.30
2023-12-04T05:52:57.870Z,24.85
2023-12-04T05:55:25.669Z,24.27
2023-12-04T05:57:53.446Z,23.30
2023-12-04T06:00:25.332Z,23.30
2023-12-04T06:02:54.560Z,22.98
2023-12-04T06:05:22.625Z,23.20
2023-12-04T06:07:51.740Z,21.55
2023-12-04T06:10:19.590Z,21.67
2023-12-04T06:12:47.499Z,20.88
2023-12-04T06:15:15.398Z,20.60
2023-12-04T06:17:43.186Z,21.75
2023-12-04T06:20:12.671Z,20.50
2023-12-04T06:22:40.968Z,20.25
2023-12-04T06:25:11.740Z,19.15
2023-12-04T06:27:40.517Z,19.48
2023-12-04T06:30:09.210Z,18.05
2023-12-04T06:32:37.515Z,18.52
2023-12-04T06:35:06.481Z,17.58
2023-12-04T06:37:34.801Z,17.10
2023-12-04T06:40:03.784Z,17.08
2023-12-04T06:42:33.767Z,16.40
2023-12-04T06:45:02.281Z,16.95
2023-12-04T06:47:30.111Z,15.80
2023-12-04T06:49:57.887Z,15.82
2023-12-04T06:52:25.653Z,16.17
2023-12-04T06:54:53.433Z,15.18
2023-12-04T06:57:21.210Z,14.65
2023-12-04T06:59:50.313Z,14.77
2023-12-04T07:02:18.046Z,14.50
2023-12-04T07:04:45.845Z,14.60
2023-12-04T07:07:13.790Z,14.07
2023-12-04T07:09:41.623Z,13.77
2023-12-04T07:12:09.525Z,13.13
2023-12-04T07:14:37.268Z,12.73
2023-12-04T07:17:06.426Z,12.20
2023-12-04T07:19:34.395Z,12.73
2023-12-04T07:22:02.284Z,12.55
2023-12-04T07:24:30.029Z,12.18
2023-12-04T07:26:57.751Z,11.50
2023-12-04T07:29:25.511Z,11.13
2023-12-04T07:31:53.303Z,11.02
2023-12-04T07:34:22.502Z,10.70
2023-12-04T07:36:50.340Z,10.98
2023-12-04T07:39:18.127Z,10.23
2023-12-04T07:41:45.924Z,10.18
2023-12-04T07:44:13.697Z,9.70
2023-12-04T07:46:41.413Z,9.75
2023-12-04T07:49:09.250Z,9.85
2023-12-04T07:51:38.445Z,8.98
2023-12-04T07:54:06.398Z,8.98
2023-12-04T07:56:34.170Z,8.95
2023-12-04T07:59:01.914Z,8.75
2023-12-04T08:01:29.651Z,8.50
2023-12-04T08:03:57.526Z,7.85
2023-12-04T08:06:25.384Z,8.02
2023-12-04T08:08:55.540Z,7.97
2023-12-04T08:11:23.317Z,7.57
2023-12-04T08:13:51.083Z,7.25
2023-12-04T08:16:21.173Z,7.70
2023-12-04T08:18:49.210Z,7.00
2023-12-04T08:21:17.078Z,7.15
2023-12-04T08:23:44.873Z,7.28
2023-12-04T08:26:14.128Z,6.22
2023-12-04T08:28:42.803Z,6.43
2023-12-04T08:31:11.050Z,6.38
2023-12-04T08:33:38.920Z,5.95
2023-12-04T08:36:07.601Z,6.07
2023-12-04T08:38:35.441Z,6.00
2023-12-04T08:41:03.334Z,5.80
2023-12-04T08:43:32.456Z,5.32
2023-12-04T08:46:01.321Z,5.13
2023-12-04T08:48:29.305Z,5.22
2023-12-04T08:50:57.424Z,4.78
2023-12-04T08:53:25.285Z,4.97
2023-12-04T08:55:54.095Z,5.00
2023-12-04T08:58:22.025Z,4.70
2023-12-04T09:00:51.164Z,4.68
2023-12-04T09:03:26.411Z,4.18
2023-12-04T09:05:56.938Z,4.55
2023-12-04T09:08:34.432Z,4.30
2023-12-04T09:13:36.859Z,3.92
2023-12-04T09:16:06.943Z,4.20
2023-12-04T09:18:35.605Z,4.00
2023-12-04T09:21:03.617Z,3.95
2023-12-04T09:23:31.639Z,4.18
2023-12-04T09:25:59.461Z,4.25
2023-12-04T09:28:27.214Z,3.70
2023-12-04T09:30:55.207Z,4.03
2023-12-04T09:33:24.409Z,3.08
2023-12-04T09:35:52.220Z,3.40
2023-12-04T09:38:20.025Z,3.42
2023-12-04T09:40:47.838Z,5.00
2023-12-04T09:43:15.555Z,3.20
2023-12-04T09:45:44.180Z,3.42
2023-12-04T09:48:12.748Z,3.53
2023-12-04T09:50:42.297Z,2.53
2023-12-04T09:53:12.605Z,2.90
2023-12-04T09:55:40.406Z,3.05
2023-12-04T09:58:08.128Z,2.97
2023-12-04T10:00:35.860Z,2.60
2023-12-04T10:03:05.240Z,2.80
2023-12-04T10:05:33.100Z,2.95
2023-12-04T10:08:02.177Z,2.90
2023-12-04T10:10:30.117Z,2.83
2023-12-04T10:12:58.173Z,2.78
2023-12-04T10:15:26.025Z,2.60
2023-12-04T10:17:55.448Z,2.47
2023-12-04T10:20:24.992Z,2.60
2023-12-04T10:22:56.288Z,2.55
2023-12-04T10:25:26.170Z,2.63
2023-12-04T10:27:55.167Z,2.63
2023-12-04T10:30:27.429Z,2.28
2023-12-04T10:32:57.234Z,2.50
2023-12-04T10:35:25.126Z,2.42
2023-12-04T10:37:56.521Z,2.40
2023-12-04T10:40:29.300Z,2.10
2023-12-04T10:43:12.792Z,2.40
2023-12-04T10:45:41.133Z,2.35
2023-12-04T10:48:09.211Z,3.45
2023-12-04T10:50:39.052Z,2.10
2023-12-04T10:53:06.880Z,2.58
2023-12-04T10:55:36.126Z,2.40
2023-12-04T10:58:04.849Z,2.65
2023-12-04T11:00:33.461Z,2.15
2023-12-04T11:03:03.929Z,2.30
2023-12-04T11:05:32.596Z,2.25
2023-12-04T11:08:14.754Z,2.20
2023-12-04T11:10:50.808Z,2.20
2023-12-04T11:13:19.985Z,1.95
2023-12-04T11:15:51.244Z,2.00
2023-12-04T11:18:19.282Z,1.98
2023-12-04T11:20:50.587Z,2.05
2023-12-04T11:23:18.347Z,2.15
2023-12-04T11:25:48.557Z,2.03
2023-12-04T11:28:16.389Z,2.13
2023-12-04T11:30:44.324Z,1.80
2023-12-04T11:33:13.052Z,2.10
2023-12-04T11:35:41.049Z,2.72
2023-12-04T11:38:10.532Z,2.00
2023-12-04T11:40:39.140Z,1.90
2023-12-04T11:43:23.524Z,2.13
2023-12-04T11:45:51.458Z,2.05
2023-12-04T11:48:19.335Z,2.15
2023-12-04T11:50:47.188Z,2.25
2023-12-04T11:53:15.400Z,2.13
2023-12-04T11:55:43.304Z,1.80
2023-12-04T11:58:12.636Z,2.67
2023-12-04T12:00:40.550Z,1.85
2023-12-04T12:03:18.042Z,2.20
2023-12-04T12:05:51.702Z,2.53
2023-12-04T12:08:19.996Z,1.90
2023-12-04T12:10:48.452Z,2.00
2023-12-04T12:13:17.615Z,1.90
2023-12-04T12:15:45.495Z,2.05
2023-12-04T12:18:13.868Z,1.92
2023-12-04T12:20:41.808Z,1.95
2023-12-04T12:23:09.816Z,2.25
2023-12-04T12:25:37.891Z,1.92
2023-12-04T12:28:05.938Z,2.00
2023-12-04T12:30:35.785Z,1.83
2023-12-04T12:33:03.641Z,1.75
2023-12-04T12:35:32.971Z,1.85
2023-12-04T12:38:00.718Z,1.65
2023-12-04T12:40:29.946Z,1.92
2023-12-04T12:43:08.249Z,1.90
2023-12-04T12:45:44.137Z,1.60
2023-12-04T12:48:15.212Z,1.70
2023-12-04T12:50:44.002Z,1.73
2023-12-04T12:53:12.850Z,1.95
2023-12-04T12:55:41.061Z,1.80
2023-12-04T12:58:09.612Z,2.75
2023-12-04T13:00:37.592Z,1.70
2023-12-04T13:03:07.629Z,1.50
2023-12-04T13:05:36.312Z,1.70
2023-12-04T13:08:04.134Z,1.75
2023-12-04T13:10:31.963Z,1.73
2023-12-04T13:13:01.069Z,3.05
2023-12-04T13:15:28.942Z,1.70
2023-12-04T13:17:57.708Z,1.98
2023-12-04T13:20:26.971Z,1.60
2023-12-04T13:22:54.780Z,1.55
2023-12-04T13:25:25.123Z,1.67
2023-12-04T13:27:55.472Z,4.25
2023-12-04T13:30:23.231Z,2.60
2023-12-04T13:32:52.282Z,2.22
2023-12-04T13:35:20.585Z,2.15
2023-12-04T13:37:55.753Z,3.75
2023-12-04T13:40:27.222Z,1.75
2023-12-04T13:43:12.880Z,2.10
2023-12-04T13:45:40.745Z,3.45
2023-12-04T13:48:08.706Z,1.80
2023-12-04T13:50:36.624Z,2.90
2023-12-04T13:53:07.640Z,1.83
2023-12-04T13:55:48.913Z,1.95
2023-12-04T13:58:39.109Z,2.05
2023-12-04T14:01:14.801Z,4.22
2023-12-04T14:03:43.931Z,3.47
2023-12-04T14:06:12.532Z,2.53
2023-12-04T14:08:42.017Z,4.45
2023-12-04T14:11:10.924Z,2.83
2023-12-04T14:13:40.079Z,2.95
2023-12-04T14:16:08.553Z,3.55
2023-12-04T14:18:36.359Z,3.35
2023-12-04T14:21:04.353Z,2.88
2023-12-04T14:23:32.138Z,4.53
2023-12-04T14:26:01.936Z,3.55
2023-12-04T14:28:36.669Z,3.15
2023-12-04T14:31:09.972Z,3.47
2023-12-04T14:33:40.668Z,2.13
2023-12-04T14:36:10.814Z,1.92
2023-12-04T14:38:39.357Z,3.78
2023-12-04T14:41:10.313Z,1.90
2023-12-04T14:43:38.651Z,3.10
2023-12-04T14:46:09.216Z,2.53
2023-12-04T14:48:39.145Z,5.30
2023-12-04T14:51:07.409Z,6.30
2023-12-04T14:53:44.924Z,4.93
2023-12-04T14:56:28.271Z,4.70
2023-12-04T14:59:19.628Z,3.72
2023-12-04T15:02:06.979Z,6.93
2023-12-04T15:04:48.959Z,6.20
2023-12-04T15:07:56.018Z,2.70
2023-12-04T15:10:44.289Z,3.17
2023-12-04T15:13:43.506Z,4.07
2023-12-04T15:16:27.000Z,4.28
2023-12-04T15:19:26.803Z,3.88
2023-12-04T15:21:55.962Z,5.43
2023-12-04T15:24:23.240Z,3.75
2023-12-04T15:26:51.044Z,2.35
2023-12-04T15:29:21.232Z,4.85
2023-12-04T15:31:49.065Z,3.53
2023-12-04T15:34:17.676Z,5.60
2023-12-04T15:36:45.627Z,3.00
2023-12-04T15:39:12.683Z,3.60
2023-12-04T15:41:40.630Z,4.95
2023-12-04T15:44:07.514Z,2.13
2023-12-04T15:46:36.673Z,3.30
2023-12-04T15:49:04.763Z,3.35
2023-12-04T15:51:32.689Z,3.03
2023-12-04T15:53:59.539Z,2.78
2023-12-04T15:56:28.141Z,3.80
2023-12-04T15:58:54.927Z,3.50
2023-12-04T16:01:22.695Z,4.32
2023-12-04T16:03:51.937Z,6.35
2023-12-04T16:06:19.810Z,1.58
2023-12-04T16:08:47.622Z,3.50
2023-12-04T16:11:15.347Z,1.50
2023-12-04T16:13:43.138Z,3.47
2023-12-04T16:16:11.337Z,1.70
2023-12-04T16:18:39.808Z,2.63
2023-12-04T16:21:10.068Z,2.58
2023-12-04T16:23:37.888Z,4.50
2023-12-04T16:26:06.470Z,2.13
2023-12-04T16:28:34.764Z,3.83
2023-12-04T16:31:02.585Z,2.47
2023-12-04T16:33:30.538Z,3.70
2023-12-04T16:35:58.383Z,2.22
2023-12-04T16:38:28.886Z,2.47
2023-12-04T16:40:58.304Z,1.95
2023-12-04T16:43:28.142Z,1.80
2023-12-04T16:45:56.097Z,2.58
2023-12-04T16:48:24.264Z,2.03
2023-12-04T16:50:52.007Z,1.95
2023-12-04T16:53:19.832Z,1.88
2023-12-04T16:55:48.910Z,2.55
2023-12-04T16:58:16.698Z,2.00
2023-12-04T17:00:44.489Z,3.05
2023-12-04T17:03:12.402Z,2.83
2023-12-04T17:05:40.296Z,1.60
2023-12-04T17:08:08.942Z,2.63
2023-12-04T17:10:36.661Z,4.10
2023-12-04T17:13:07.011Z,4.10
2023-12-04T17:15:36.168Z,2.80
2023-12-04T17:18:03.973Z,3.00
2023-12-04T17:20:31.685Z,3.05
2023-12-04T17:22:59.429Z,4.32
2023-12-04T17:25:27.187Z,1.67
2023-12-04T17:27:54.943Z,2.58
2023-12-04T17:30:24.066Z,2.03
2023-12-04T17:32:51.957Z,2.90
2023-12-04T17:35:19.871Z,3.50
2023-12-04T17:37:47.664Z,2.08
2023-12-04T17:40:16.770Z,1.92
2023-12-04T17:42:46.138Z,2.47
2023-12-04T17:45:15.812Z,3.10
2023-12-04T17:47:45.084Z,2.28
2023-12-04T17:50:13.902Z,1.80
2023-12-04T17:52:42.235Z,4.10
2023-12-04T17:55:11.960Z,2.50
2023-12-04T17:57:40.481Z,1.40
2023-12-04T18:00:15.272Z,1.50
2023-12-04T18:02:44.027Z,2.38
2023-12-04T18:05:13.630Z,3.53
2023-12-04T18:07:41.459Z,1.67
2023-12-04T18:10:09.761Z,2.55
2023-12-04T18:12:39.696Z,1.88
2023-12-04T18:15:08.686Z,1.85
2023-12-04T18:17:42.499Z,1.85
2023-12-04T18:20:14.693Z,1.92
2023-12-04T18:22:42.540Z,1.80
2023-12-04T18:25:11.532Z,1.40
2023-12-04T18:27:40.521Z,1.90
2023-12-04T18:30:09.720Z,3.00
2023-12-04T18:32:38.100Z,1.77
2023-12-04T18:35:08.297Z,1.73
2023-12-04T18:37:43.251Z,1.58
2023-12-04T18:40:13.596Z,1.90
2023-12-04T18:42:42.278Z,3.22
2023-12-04T18:45:11.137Z,1.40
2023-12-04T18:47:38.943Z,2.08
2023-12-04T18:50:07.849Z,2.70
2023-12-04T18:52:37.665Z,1.60
2023-12-04T18:55:05.750Z,1.65
2023-12-04T18:57:33.801Z,1.60
2023-12-04T19:00:01.624Z,1.50
2023-12-04T19:02:29.593Z,1.58
2023-12-04T19:04:57.514Z,1.60
2023-12-04T19:07:25.469Z,1.75
2023-12-04T19:09:54.593Z,1.83
2023-12-04T19:12:22.508Z,1.75
2023-12-04T19:14:50.335Z,2.45
2023-12-04T19:17:18.139Z,1.60
2023-12-04T19:19:45.965Z,1.30
2023-12-04T19:22:13.809Z,1.40
2023-12-04T19:24:41.793Z,1.85
2023-12-04T19:27:10.940Z,2.83
2023-12-04T19:29:38.708Z,1.88
2023-12-04T19:32:07.009Z,1.40
2023-12-04T19:34:34.859Z,2.83
2023-12-04T19:37:02.722Z,1.35
2023-12-04T19:39:30.596Z,1.30
2023-12-04T19:41:58.400Z,1.20
2023-12-04T19:44:27.958Z,1.35
2023-12-04T19:46:56.365Z,1.50
2023-12-04T19:49:24.235Z,1.15
2023-12-04T19:51:52.139Z,1.48
2023-12-04T19:54:20.401Z,1.30
2023-12-04T19:56:49.967Z,1.30
2023-12-04T19:59:17.778Z,1.50
2023-12-04T20:01:46.857Z,1.33
2023-12-04T20:04:14.873Z,1.77
2023-12-04T20:06:43.624Z,1.42
2023-12-04T20:09:11.906Z,1.35
2023-12-04T20:11:39.788Z,1.80
2023-12-04T20:14:07.629Z,1.50
2023-12-04T20:16:35.466Z,1.83
2023-12-04T20:19:04.737Z,2.35
2023-12-04T20:21:32.794Z,1.20
2023-12-04T20:24:00.853Z,1.90
2023-12-04T20:26:29.129Z,1.63
2023-12-04T20:28:56.920Z,1.50
2023-12-04T20:31:24.847Z,1.73
2023-12-04T20:33:52.722Z,1.30
2023-12-04T20:36:21.926Z,1.58
2023-12-04T20:38:51.618Z,1.52
2023-12-04T20:41:21.234Z,1.30
2023-12-04T20:43:49.036Z,1.30
2023-12-04T20:46:16.978Z,1.52
2023-12-04T20:48:45.669Z,1.20
2023-12-04T20:51:14.359Z,1.27
2023-12-04T20:53:43.611Z,1.40
2023-12-04T20:56:12.472Z,1.30
2023-12-04T20:58:40.261Z,1.20
2023-12-04T21:01:08.481Z,1.20
2023-12-04T21:03:36.365Z,1.35
2023-12-04T21:06:04.513Z,1.10
2023-12-04T21:08:32.348Z,1.27
2023-12-04T21:11:01.449Z,1.20
2023-12-04T21:13:29.243Z,1.25
2023-12-04T21:15:57.317Z,1.70
2023-12-04T21:18:25.498Z,2.17
2023-12-04T21:20:53.354Z,1.40
2023-12-04T21:23:21.127Z,1.10
2023-12-04T21:25:48.962Z,1.85
2023-12-04T21:28:18.553Z,1.30
2023-12-04T21:30:46.443Z,1.40
2023-12-04T21:33:15.862Z,1.20
2023-12-04T21:35:43.732Z,1.08
2023-12-04T21:38:11.508Z,1.30
2023-12-04T21:40:39.228Z,1.33
2023-12-04T21:43:07.027Z,3.08
2023-12-04T21:45:36.263Z,1.27
2023-12-04T21:48:04.686Z,1.38
2023-12-04T21:50:32.621Z,1.20
2023-12-04T21:53:00.395Z,1.50
2023-12-04T21:55:28.232Z,2.25
2023-12-04T21:57:56.072Z,1.20
2023-12-04T22:00:25.910Z,1.30
2023-12-04T22:02:55.268Z,1.45
2023-12-04T22:05:23.478Z,1.20
2023-12-04T22:07:51.498Z,1.30
2023-12-04T22:10:19.378Z,1.42
2023-12-04T22:12:47.200Z,1.30
2023-12-04T22:15:15.042Z,1.38
2023-12-04T22:17:43.507Z,1.40
2023-12-04T22:20:13.254Z,1.30
2023-12-04T22:22:41.027Z,1.20
2023-12-04T22:25:09.633Z,1.20
2023-12-04T22:27:37.500Z,1.40
2023-12-04T22:30:06.729Z,1.20
2023-12-04T22:32:35.209Z,1.20
2023-12-04T22:35:04.326Z,1.10
2023-12-04T22:37:33.440Z,1.10
2023-12-04T22:40:01.315Z,1.13
2023-12-04T22:42:29.193Z,1.13
2023-12-04T22:44:56.970Z,1.40
2023-12-04T22:47:24.750Z,1.00
2023-12-04T22:49:52.680Z,1.52
2023-12-04T22:52:20.516Z,1.10
2023-12-04T22:54:49.654Z,1.23
2023-12-04T22:57:17.489Z,1.33
2023-12-04T22:59:45.352Z,1.20
2023-12-04T23:02:13.177Z,1.40
2023-12-04T23:04:41.372Z,1.20
2023-12-04T23:07:09.239Z,1.00
2023-12-04T23:09:37.005Z,1.38
2023-12-04T23:12:07.425Z,1.10
2023-12-04T23:14:35.241Z,1.40
2023-12-04T23:17:02.984Z,1.25
2023-12-04T23:19:30.986Z,2.00
2023-12-04T23:21:59.054Z,1.20
2023-12-04T23:24:26.850Z,1.88
2023-12-04T23:26:54.618Z,1.20
2023-12-04T23:29:24.290Z,1.33
2023-12-04T23:31:52.056Z,1.30
2023-12-04T23:34:19.907Z,1.30
2023-12-04T23:36:47.887Z,1.08
2023-12-04T23:39:16.108Z,1.10
2023-12-04T23:41:43.878Z,1.42
2023-12-04T23:44:14.140Z,1.25
2023-12-04T23:46:43.847Z,1.10
2023-12-04T23:49:11.726Z,1.10
2023-12-04T23:51:39.559Z,1.23
2023-12-04T23:54:07.456Z,1.20
2023-12-04T23:56:36.772Z,1.13
2023-12-04T23:59:04.604Z,1.23
